Time;durP1;ratioP1;P1;durP2;ratioP2;P2;SDS_P1;SDS_P2;PMS_P1;PMS_P2;Temp;Humidity;BMP_temperature;BMP_pressure;BME280_temperature;BME280_humidity;BME280_pressure;Samples;Min_cycle;Max_cycle;Signal;HPM_P1;HPM_P2
2023/11/30 00:02:10;;;;;;;8.80;3.47;;;;;;;;;;5053508;28;20200;-61
2023/11/30 00:04:37;;;;;;;8.50;3.53;;;;;;;;;;5066790;27;20139;-61
2023/11/30 00:07:09;;;;;;;8.18;3.45;;;;;;;;;;5035180;28;20144;-60
2023/11/30 00:09:36;;;;;;;7.70;3.35;;;;;;;;;;5034786;28;20049;-61
2023/11/30 00:12:05;;;;;;;7.93;3.17;;;;;;;;;;5033849;28;20029;-61
2023/11/30 00:14:31;;;;;;;12.13;3.90;;;;;;;;;;5034823;28;20057;-61
2023/11/30 00:16:58;;;;;;;8.63;3.47;;;;;;;;;;5044015;28;20053;-60
2023/11/30 00:19:25;;;;;;;10.18;3.75;;;;;;;;;;5074673;28;20187;-60
2023/11/30 00:21:52;;;;;;;9.70;3.40;;;;;;;;;;5041122;28;20098;-60
2023/11/30 00:24:18;;;;;;;11.05;4.10;;;;;;;;;;5072303;28;20136;-61
2023/11/30 00:26:46;;;;;;;8.20;3.38;;;;;;;;;;5075189;28;20122;-60
2023/11/30 00:29:14;;;;;;;8.93;3.42;;;;;;;;;;5078676;28;20057;-60
2023/11/30 00:31:40;;;;;;;6.70;3.17;;;;;;;;;;5041756;28;20045;-61
2023/11/30 00:34:07;;;;;;;9.30;3.78;;;;;;;;;;5034180;28;20830;-62
2023/11/30 00:36:34;;;;;;;7.95;3.22;;;;;;;;;;5027051;28;20077;-61
2023/11/30 00:39:00;;;;;;;9.88;3.95;;;;;;;;;;5024819;28;20139;-62
2023/11/30 00:41:27;;;;;;;9.18;3.50;;;;;;;;;;5038297;28;20045;-62
2023/11/30 00:43:54;;;;;;;9.75;3.92;;;;;;;;;;5024329;28;20123;-62
2023/11/30 00:46:22;;;;;;;10.30;4.32;;;;;;;;;;5020752;28;20076;-61
2023/11/30 00:48:48;;;;;;;8.57;3.53;;;;;;;;;;5025591;28;20072;-62
2023/11/30 00:51:15;;;;;;;10.15;4.15;;;;;;;;;;5023442;28;20057;-62
2023/11/30 00:53:42;;;;;;;9.32;3.83;;;;;;;;;;5046884;28;20144;-61
2023/11/30 00:56:11;;;;;;;9.18;3.80;;;;;;;;;;5028351;28;20165;-61
2023/11/30 00:58:37;;;;;;;12.05;3.83;;;;;;;;;;5054440;28;20104;-61
2023/11/30 01:01:04;;;;;;;9.15;3.63;;;;;;;;;;5025080;28;20267;-59
2023/11/30 01:03:32;;;;;;;9.68;4.22;;;;;;;;;;5053774;28;20148;-59
2023/11/30 01:05:58;;;;;;;9.00;3.80;;;;;;;;;;5011904;28;20160;-60
2023/11/30 01:08:25;;;;;;;10.38;4.32;;;;;;;;;;5054118;28;20053;-60
2023/11/30 01:10:52;;;;;;;8.68;3.72;;;;;;;;;;5023507;28;20144;-60
2023/11/30 01:13:18;;;;;;;9.82;3.47;;;;;;;;;;5020387;28;20095;-59
2023/11/30 01:15:45;;;;;;;12.27;3.90;;;;;;;;;;5052316;28;20123;-59
2023/11/30 01:18:12;;;;;;;8.45;3.25;;;;;;;;;;5029151;28;20159;-60
2023/11/30 01:20:40;;;;;;;11.10;3.83;;;;;;;;;;5020420;28;20045;-60
2023/11/30 01:23:06;;;;;;;9.48;3.78;;;;;;;;;;5055176;28;20045;-59
2023/11/30 01:25:33;;;;;;;9.80;3.85;;;;;;;;;;5016110;28;20045;-59
2023/11/30 01:28:00;;;;;;;15.00;4.20;;;;;;;;;;5018778;28;20065;-61
2023/11/30 01:30:27;;;;;;;9.85;3.70;;;;;;;;;;5024587;28;20115;-60
2023/11/30 01:32:53;;;;;;;10.80;3.72;;;;;;;;;;5020987;28;20046;-60
2023/11/30 01:35:20;;;;;;;9.77;3.67;;;;;;;;;;5021120;28;20060;-60
2023/11/30 01:37:48;;;;;;;9.00;3.67;;;;;;;;;;5057487;28;20076;-60
2023/11/30 01:40:15;;;;;;;12.30;3.55;;;;;;;;;;5016966;28;20300;-60
2023/11/30 01:42:42;;;;;;;8.43;3.63;;;;;;;;;;5030070;28;20057;-60
2023/11/30 01:45:10;;;;;;;9.38;3.65;;;;;;;;;;5016256;28;20057;-60
2023/11/30 01:47:36;;;;;;;8.93;3.78;;;;;;;;;;5024142;28;20122;-60
2023/11/30 01:50:03;;;;;;;11.07;4.38;;;;;;;;;;5050797;28;20056;-60
2023/11/30 01:52:31;;;;;;;8.80;3.75;;;;;;;;;;5053648;28;20055;-60
2023/11/30 01:55:02;;;;;;;9.43;3.92;;;;;;;;;;5050279;28;20049;-60
2023/11/30 01:57:29;;;;;;;12.77;3.85;;;;;;;;;;5021822;28;20104;-61
2023/11/30 01:59:59;;;;;;;10.38;3.92;;;;;;;;;;5048779;28;20046;-61
2023/11/30 02:02:26;;;;;;;9.68;3.47;;;;;;;;;;5020000;28;20136;-61
2023/11/30 02:04:54;;;;;;;9.57;3.72;;;;;;;;;;5017429;28;20060;-61
2023/11/30 02:07:21;;;;;;;7.82;3.85;;;;;;;;;;5057926;28;20046;-60
2023/11/30 02:09:48;;;;;;;8.75;3.60;;;;;;;;;;5036232;28;20045;-60
2023/11/30 02:12:16;;;;;;;14.30;4.60;;;;;;;;;;5023215;28;20052;-60
2023/11/30 02:14:43;;;;;;;7.95;3.42;;;;;;;;;;5037533;28;20103;-60
2023/11/30 02:17:10;;;;;;;8.43;3.53;;;;;;;;;;5021064;28;20058;-60
2023/11/30 02:19:36;;;;;;;9.25;3.45;;;;;;;;;;5025235;28;20373;-60
2023/11/30 02:22:05;;;;;;;8.82;3.92;;;;;;;;;;5048858;28;20045;-60
2023/11/30 02:24:31;;;;;;;6.60;3.20;;;;;;;;;;5052908;28;20114;-60
2023/11/30 02:26:58;;;;;;;9.48;3.30;;;;;;;;;;5026738;28;20061;-61
2023/11/30 02:29:24;;;;;;;7.30;3.33;;;;;;;;;;5021057;28;20053;-61
2023/11/30 02:31:52;;;;;;;11.82;3.72;;;;;;;;;;5053770;28;20134;-61
2023/11/30 02:34:19;;;;;;;9.38;3.78;;;;;;;;;;5015573;28;20114;-60
2023/11/30 02:36:45;;;;;;;6.72;2.92;;;;;;;;;;5028484;28;20057;-60
2023/11/30 02:39:13;;;;;;;11.80;3.78;;;;;;;;;;5020701;28;20053;-60
2023/11/30 02:41:40;;;;;;;6.65;3.03;;;;;;;;;;5019116;28;20061;-60
2023/11/30 02:44:08;;;;;;;12.32;3.67;;;;;;;;;;5011798;28;20114;-60
2023/11/30 02:46:34;;;;;;;7.88;3.10;;;;;;;;;;5040842;28;20062;-60
2023/11/30 02:49:01;;;;;;;8.30;3.45;;;;;;;;;;5046086;28;20060;-61
2023/11/30 02:51:27;;;;;;;9.10;3.70;;;;;;;;;;5040543;28;20084;-60
2023/11/30 02:53:54;;;;;;;7.50;3.28;;;;;;;;;;5064634;28;20275;-61
2023/11/30 02:56:22;;;;;;;8.93;3.40;;;;;;;;;;5042639;28;20057;-60
2023/11/30 02:58:49;;;;;;;9.57;3.85;;;;;;;;;;5040141;28;20049;-60
2023/11/30 03:01:15;;;;;;;8.90;3.58;;;;;;;;;;5035771;28;20111;-60
2023/11/30 03:03:42;;;;;;;8.13;3.60;;;;;;;;;;5006172;28;20052;-60
2023/11/30 03:06:11;;;;;;;13.77;3.40;;;;;;;;;;5020896;28;20056;-59
2023/11/30 03:08:38;;;;;;;9.90;3.97;;;;;;;;;;5040012;28;20061;-60
2023/11/30 03:11:04;;;;;;;6.65;2.88;;;;;;;;;;5043458;28;20159;-61
2023/11/30 03:13:33;;;;;;;8.85;4.03;;;;;;;;;;5028405;28;20053;-60
2023/11/30 03:16:00;;;;;;;11.35;4.22;;;;;;;;;;5051267;28;20057;-60
2023/11/30 03:18:27;;;;;;;12.00;4.38;;;;;;;;;;5073191;28;20065;-59
2023/11/30 03:20:53;;;;;;;11.10;4.38;;;;;;;;;;5043382;28;20073;-60
2023/11/30 03:23:19;;;;;;;8.30;3.42;;;;;;;;;;5039140;28;20061;-60
2023/11/30 03:25:46;;;;;;;9.25;4.00;;;;;;;;;;4979448;28;20160;-60
2023/11/30 03:28:12;;;;;;;10.43;4.07;;;;;;;;;;5018874;28;20355;-60
2023/11/30 03:30:41;;;;;;;9.00;3.78;;;;;;;;;;5019651;28;20136;-60
2023/11/30 03:33:08;;;;;;;9.25;3.42;;;;;;;;;;5021173;28;20095;-60
2023/11/30 03:35:34;;;;;;;9.48;4.05;;;;;;;;;;5029394;28;20049;-60
2023/11/30 03:38:01;;;;;;;8.70;3.53;;;;;;;;;;5014330;28;20076;-61
2023/11/30 03:40:28;;;;;;;10.88;4.03;;;;;;;;;;5018268;28;20141;-60
2023/11/30 03:42:54;;;;;;;8.25;3.83;;;;;;;;;;5053562;28;20049;-62
2023/11/30 03:45:21;;;;;;;7.72;3.28;;;;;;;;;;5036209;28;20049;-59
2023/11/30 03:47:49;;;;;;;13.10;3.97;;;;;;;;;;5009286;28;20045;-59
2023/11/30 03:50:16;;;;;;;8.77;3.40;;;;;;;;;;5024831;28;20053;-59
2023/11/30 03:52:42;;;;;;;8.30;3.25;;;;;;;;;;5025167;28;20238;-59
2023/11/30 03:55:09;;;;;;;7.88;3.35;;;;;;;;;;5026218;28;20055;-60
2023/11/30 03:57:36;;;;;;;8.85;3.47;;;;;;;;;;5055977;28;20045;-60
2023/11/30 04:00:03;;;;;;;8.57;3.28;;;;;;;;;;5017078;28;20120;-60
2023/11/30 04:02:30;;;;;;;8.70;3.83;;;;;;;;;;5025033;28;20085;-59
2023/11/30 04:04:58;;;;;;;9.57;3.67;;;;;;;;;;5011222;28;20219;-59
2023/11/30 04:07:29;;;;;;;8.88;3.80;;;;;;;;;;5022856;28;20057;-59
2023/11/30 04:09:56;;;;;;;10.07;4.25;;;;;;;;;;5041976;28;20045;-60
2023/11/30 04:12:25;;;;;;;11.75;4.40;;;;;;;;;;5022345;28;20057;-59
2023/11/30 04:14:52;;;;;;;9.80;4.30;;;;;;;;;;5064270;28;20149;-60
2023/11/30 04:17:18;;;;;;;10.98;3.83;;;;;;;;;;5036338;28;20121;-59
2023/11/30 04:19:45;;;;;;;9.70;3.75;;;;;;;;;;5063435;28;20054;-59
2023/11/30 04:22:13;;;;;;;10.90;4.18;;;;;;;;;;5022106;28;20130;-60
2023/11/30 04:24:39;;;;;;;10.48;4.75;;;;;;;;;;5005792;28;20053;-59
2023/11/30 04:27:06;;;;;;;8.40;3.95;;;;;;;;;;5021151;28;20080;-59
2023/11/30 04:29:32;;;;;;;11.40;4.38;;;;;;;;;;5058614;28;20164;-60
2023/11/30 04:31:59;;;;;;;8.82;3.78;;;;;;;;;;5024351;28;20057;-60
2023/11/30 04:34:26;;;;;;;9.93;4.00;;;;;;;;;;5023183;28;20138;-59
2023/11/30 04:36:52;;;;;;;9.80;4.00;;;;;;;;;;5028923;28;20077;-60
2023/11/30 04:39:20;;;;;;;11.32;4.20;;;;;;;;;;5032753;28;20069;-59
2023/11/30 04:41:48;;;;;;;12.65;4.43;;;;;;;;;;5028190;28;20057;-60
2023/11/30 04:44:14;;;;;;;10.05;4.43;;;;;;;;;;5024595;28;20052;-60
2023/11/30 04:46:41;;;;;;;10.73;4.68;;;;;;;;;;5046829;28;20083;-59
2023/11/30 04:49:08;;;;;;;12.30;4.97;;;;;;;;;;5043937;28;20323;-59
2023/11/30 04:51:34;;;;;;;9.68;4.70;;;;;;;;;;5040733;28;20040;-62
2023/11/30 04:54:01;;;;;;;10.82;4.70;;;;;;;;;;4998611;28;20057;-60
2023/11/30 04:56:29;;;;;;;12.20;4.63;;;;;;;;;;5030200;28;20064;-59
2023/11/30 04:58:56;;;;;;;11.00;5.00;;;;;;;;;;5036927;28;20057;-61
2023/11/30 05:01:22;;;;;;;11.73;4.95;;;;;;;;;;5054800;28;20140;-60
2023/11/30 05:03:50;;;;;;;12.75;5.25;;;;;;;;;;5038444;28;20128;-59
2023/11/30 05:06:16;;;;;;;9.05;4.50;;;;;;;;;;5038010;28;20165;-60
2023/11/30 05:08:43;;;;;;;11.30;4.68;;;;;;;;;;5061718;28;20068;-59
2023/11/30 05:11:10;;;;;;;12.95;5.18;;;;;;;;;;5046407;28;20108;-59
2023/11/30 05:13:38;;;;;;;9.13;4.35;;;;;;;;;;5038752;28;20091;-59
2023/11/30 05:16:06;;;;;;;14.63;5.07;;;;;;;;;;5045712;28;20053;-62
2023/11/30 05:18:32;;;;;;;11.70;5.00;;;;;;;;;;5025845;28;20049;-62
2023/11/30 05:20:59;;;;;;;10.35;4.70;;;;;;;;;;5056477;28;20057;-61
2023/11/30 05:23:26;;;;;;;8.57;3.97;;;;;;;;;;5022110;28;20058;-61
2023/11/30 05:25:53;;;;;;;9.13;4.13;;;;;;;;;;5039168;28;20072;-60
2023/11/30 05:28:19;;;;;;;11.10;4.10;;;;;;;;;;5071572;28;21524;-60
2023/11/30 05:30:47;;;;;;;13.77;5.55;;;;;;;;;;5041090;28;20056;-60
2023/11/30 05:33:15;;;;;;;10.40;4.82;;;;;;;;;;5079287;28;20056;-60
2023/11/30 05:35:41;;;;;;;11.93;4.45;;;;;;;;;;5034081;28;20056;-59
2023/11/30 05:38:08;;;;;;;11.85;4.97;;;;;;;;;;5035420;28;20084;-61
2023/11/30 05:40:35;;;;;;;10.43;4.55;;;;;;;;;;5043294;28;20064;-62
2023/11/30 05:43:01;;;;;;;11.85;4.25;;;;;;;;;;5074298;28;20129;-61
2023/11/30 05:45:28;;;;;;;11.18;4.72;;;;;;;;;;5032812;28;20157;-62
2023/11/30 05:47:58;;;;;;;13.70;5.60;;;;;;;;;;5024587;28;20045;-59
2023/11/30 05:50:25;;;;;;;20.23;6.10;;;;;;;;;;5030372;28;20141;-59
2023/11/30 05:52:52;;;;;;;12.55;4.82;;;;;;;;;;5041006;28;21204;-62
2023/11/30 05:55:19;;;;;;;12.23;4.50;;;;;;;;;;5043966;28;20086;-61
2023/11/30 05:57:49;;;;;;;11.73;4.10;;;;;;;;;;5063342;28;20055;-61
2023/11/30 06:00:16;;;;;;;12.85;5.22;;;;;;;;;;5055757;28;20049;-60
2023/11/30 06:02:43;;;;;;;9.47;4.47;;;;;;;;;;5072753;28;20056;-61
2023/11/30 06:05:13;;;;;;;11.73;4.75;;;;;;;;;;5015580;28;20053;-60
2023/11/30 06:07:40;;;;;;;12.77;5.35;;;;;;;;;;5060297;28;20051;-62
2023/11/30 06:10:09;;;;;;;10.80;4.97;;;;;;;;;;5049021;28;20201;-62
2023/11/30 06:12:39;;;;;;;9.38;4.50;;;;;;;;;;5060292;28;20106;-62
2023/11/30 06:15:06;;;;;;;12.38;4.60;;;;;;;;;;5071878;28;20080;-62
2023/11/30 06:17:33;;;;;;;20.77;8.80;;;;;;;;;;5036684;28;20053;-61
2023/11/30 06:20:00;;;;;;;17.63;7.32;;;;;;;;;;5030519;28;20149;-62
2023/11/30 06:22:28;;;;;;;10.63;4.85;;;;;;;;;;5054432;28;20065;-62
2023/11/30 06:24:54;;;;;;;10.25;4.30;;;;;;;;;;5017118;28;20123;-62
2023/11/30 06:27:21;;;;;;;11.05;4.75;;;;;;;;;;5024143;28;20089;-59
2023/11/30 06:29:50;;;;;;;10.02;4.50;;;;;;;;;;5051982;28;20097;-60
2023/11/30 06:32:17;;;;;;;12.48;4.97;;;;;;;;;;5020582;28;20072;-62
2023/11/30 06:34:44;;;;;;;11.40;4.80;;;;;;;;;;5035260;28;20085;-60
2023/11/30 06:37:10;;;;;;;13.40;5.47;;;;;;;;;;5042348;28;20220;-61
2023/11/30 06:39:41;;;;;;;15.70;5.28;;;;;;;;;;5037014;28;20065;-62
2023/11/30 06:42:08;;;;;;;13.15;5.15;;;;;;;;;;5017419;28;20163;-62
2023/11/30 06:44:34;;;;;;;12.75;4.50;;;;;;;;;;5049523;28;20060;-61
2023/11/30 06:47:01;;;;;;;11.32;4.93;;;;;;;;;;5037622;28;20056;-60
2023/11/30 06:49:28;;;;;;;12.07;5.20;;;;;;;;;;5019700;28;20086;-61
2023/11/30 06:51:56;;;;;;;10.35;4.90;;;;;;;;;;5017785;28;20100;-61
2023/11/30 06:54:22;;;;;;;10.00;4.57;;;;;;;;;;5006104;28;20049;-61
2023/11/30 06:56:50;;;;;;;12.25;5.15;;;;;;;;;;5034683;28;20077;-61
2023/11/30 06:59:17;;;;;;;12.35;4.97;;;;;;;;;;5021085;28;20053;-60
2023/11/30 07:01:44;;;;;;;9.93;4.90;;;;;;;;;;5025042;28;20061;-61
2023/11/30 07:04:10;;;;;;;8.93;4.47;;;;;;;;;;5029212;28;20080;-61
2023/11/30 07:06:37;;;;;;;12.00;4.63;;;;;;;;;;5059193;28;20044;-61
2023/11/30 07:09:05;;;;;;;10.52;5.10;;;;;;;;;;5053984;28;20061;-61
2023/11/30 07:11:32;;;;;;;11.18;5.28;;;;;;;;;;5036267;28;20077;-61
2023/11/30 07:14:00;;;;;;;11.88;5.20;;;;;;;;;;4998581;28;20054;-61
2023/11/30 07:16:28;;;;;;;9.48;4.40;;;;;;;;;;5020715;28;20115;-62
2023/11/30 07:18:54;;;;;;;13.60;5.32;;;;;;;;;;5019063;28;20054;-60
2023/11/30 07:21:21;;;;;;;14.23;4.90;;;;;;;;;;5025009;28;20061;-60
2023/11/30 07:23:48;;;;;;;10.98;4.80;;;;;;;;;;5020248;28;20049;-60
2023/11/30 07:26:15;;;;;;;9.55;4.57;;;;;;;;;;5012536;28;20058;-61
2023/11/30 07:28:41;;;;;;;11.23;4.93;;;;;;;;;;5022691;28;20049;-61
2023/11/30 07:31:18;;;;;;;10.88;4.82;;;;;;;;;;5026747;28;20092;-61
2023/11/30 07:33:44;;;;;;;10.65;4.40;;;;;;;;;;5016601;28;20046;-61
2023/11/30 07:36:12;;;;;;;12.57;5.15;;;;;;;;;;5024132;28;20135;-61
2023/11/30 07:38:38;;;;;;;12.70;5.82;;;;;;;;;;5024227;28;20057;-61
2023/11/30 07:41:06;;;;;;;12.82;5.00;;;;;;;;;;5023865;28;20053;-61
2023/11/30 07:43:32;;;;;;;11.93;5.43;;;;;;;;;;5022859;28;20132;-61
2023/11/30 07:46:01;;;;;;;12.98;6.05;;;;;;;;;;5032310;28;20048;-62
2023/11/30 07:48:29;;;;;;;16.20;6.60;;;;;;;;;;5041969;28;20057;-60
2023/11/30 07:50:55;;;;;;;15.38;6.28;;;;;;;;;;5031592;28;20045;-60
2023/11/30 07:53:24;;;;;;;10.45;4.72;;;;;;;;;;5022285;28;20058;-62
2023/11/30 07:55:56;;;;;;;12.98;5.32;;;;;;;;;;5015330;28;20049;-60
2023/11/30 07:58:23;;;;;;;14.40;5.30;;;;;;;;;;5022873;28;20100;-63
2023/11/30 08:00:50;;;;;;;12.38;5.43;;;;;;;;;;5026498;28;20049;-61
2023/11/30 08:03:17;;;;;;;9.68;4.53;;;;;;;;;;5030465;28;20102;-63
2023/11/30 08:05:46;;;;;;;12.98;5.57;;;;;;;;;;5045149;28;20065;-61
2023/11/30 08:08:13;;;;;;;15.77;5.18;;;;;;;;;;5069351;28;20053;-62
2023/11/30 08:10:40;;;;;;;11.80;5.28;;;;;;;;;;5081594;28;20053;-63
2023/11/30 08:13:07;;;;;;;10.93;4.95;;;;;;;;;;5077640;28;20053;-61
2023/11/30 08:15:34;;;;;;;12.73;5.32;;;;;;;;;;5016830;28;20062;-60
2023/11/30 08:18:03;;;;;;;11.40;4.97;;;;;;;;;;5019296;28;20053;-63
2023/11/30 08:20:30;;;;;;;9.93;4.45;;;;;;;;;;5029582;28;20051;-63
2023/11/30 08:22:58;;;;;;;12.48;5.50;;;;;;;;;;5023158;28;20128;-62
2023/11/30 08:25:25;;;;;;;11.95;5.32;;;;;;;;;;5009107;28;20053;-64
2023/11/30 08:27:53;;;;;;;15.32;5.38;;;;;;;;;;5024317;28;20049;-63
2023/11/30 08:30:19;;;;;;;13.38;5.68;;;;;;;;;;5021353;28;20136;-60
2023/11/30 08:32:46;;;;;;;17.10;6.32;;;;;;;;;;5021538;28;20057;-64
2023/11/30 08:35:13;;;;;;;13.60;5.88;;;;;;;;;;5015717;28;20087;-64
2023/11/30 08:37:40;;;;;;;11.98;5.75;;;;;;;;;;5026734;28;20053;-62
2023/11/30 08:40:15;;;;;;;13.18;4.85;;;;;;;;;;5027481;28;20220;-62
2023/11/30 08:42:42;;;;;;;11.30;4.43;;;;;;;;;;5023940;28;20057;-61
2023/11/30 08:45:09;;;;;;;12.45;5.15;;;;;;;;;;5026065;28;20176;-61
2023/11/30 08:47:36;;;;;;;12.80;5.63;;;;;;;;;;5055282;28;20063;-64
2023/11/30 08:50:04;;;;;;;13.85;5.72;;;;;;;;;;5052809;28;20133;-63
2023/11/30 08:52:30;;;;;;;13.23;5.57;;;;;;;;;;5028253;28;20059;-61
2023/11/30 08:54:57;;;;;;;12.68;5.68;;;;;;;;;;5016414;28;20076;-61
2023/11/30 08:57:26;;;;;;;16.27;6.18;;;;;;;;;;5041123;28;20075;-62
2023/11/30 08:59:52;;;;;;;;;;;;;;;;;;5041293;28;20082;-62
2023/11/30 09:02:21;;;;;;;21.15;6.40;;;;;;;;;;5035312;28;19924;-62
2023/11/30 09:04:47;;;;;;;17.05;6.03;;;;;;;;;;5049760;28;20068;-59
2023/11/30 09:07:14;;;;;;;15.40;6.38;;;;;;;;;;5020909;28;20119;-60
2023/11/30 09:09:40;;;;;;;13.77;5.57;;;;;;;;;;5024071;28;20061;-63
2023/11/30 09:12:10;;;;;;;15.80;6.03;;;;;;;;;;5021876;28;20436;-61
2023/11/30 09:14:40;;;;;;;14.23;6.18;;;;;;;;;;5018352;28;20045;-64
2023/11/30 09:17:07;;;;;;;13.50;5.88;;;;;;;;;;5005744;28;20080;-62
2023/11/30 09:19:34;;;;;;;14.10;6.18;;;;;;;;;;5020775;28;20061;-65
2023/11/30 09:22:01;;;;;;;15.13;6.20;;;;;;;;;;5050605;28;20053;-63
2023/11/30 09:24:28;;;;;;;12.38;5.93;;;;;;;;;;5009344;28;20049;-62
2023/11/30 09:26:54;;;;;;;13.15;5.78;;;;;;;;;;5048097;28;20116;-63
2023/11/30 09:29:21;;;;;;;10.95;4.90;;;;;;;;;;5045057;28;20072;-59
2023/11/30 09:31:49;;;;;;;14.30;6.85;;;;;;;;;;5044917;28;20087;-63
2023/11/30 09:34:16;;;;;;;13.85;5.78;;;;;;;;;;5019758;28;20117;-61
2023/11/30 09:36:43;;;;;;;14.35;5.82;;;;;;;;;;5031306;28;20068;-62
2023/11/30 09:39:13;;;;;;;12.75;5.60;;;;;;;;;;5035128;28;20072;-63
2023/11/30 09:41:40;;;;;;;13.40;5.72;;;;;;;;;;5064316;28;20144;-63
2023/11/30 09:44:09;;;;;;;12.93;5.70;;;;;;;;;;5027069;28;20058;-61
2023/11/30 09:46:36;;;;;;;14.38;5.95;;;;;;;;;;5031785;28;20057;-63
2023/11/30 09:49:06;;;;;;;17.92;6.43;;;;;;;;;;5019454;28;20046;-61
2023/11/30 09:51:34;;;;;;;14.93;5.85;;;;;;;;;;5024505;28;20133;-62
2023/11/30 09:54:01;;;;;;;15.02;6.25;;;;;;;;;;5020905;28;20079;-61
2023/11/30 09:56:29;;;;;;;12.98;5.25;;;;;;;;;;5008571;28;20050;-60
2023/11/30 09:58:56;;;;;;;14.43;6.00;;;;;;;;;;5038482;28;20049;-62
2023/11/30 10:01:24;;;;;;;13.73;5.90;;;;;;;;;;5038599;28;20057;-61
2023/11/30 10:03:51;;;;;;;13.17;5.60;;;;;;;;;;5000729;28;20088;-61
2023/11/30 10:06:20;;;;;;;14.15;5.95;;;;;;;;;;5015198;28;20746;-62
2023/11/30 10:08:46;;;;;;;;;;;;;;;;;;5055177;28;20133;-62
2023/11/30 10:11:14;;;;;;;12.82;4.95;;;;;;;;;;5021939;28;19932;-62
2023/11/30 10:13:41;;;;;;;16.33;6.07;;;;;;;;;;5029865;28;20061;-62
2023/11/30 10:16:10;;;;;;;11.75;5.45;;;;;;;;;;5044762;28;20043;-62
2023/11/30 10:18:37;;;;;;;16.38;6.10;;;;;;;;;;5041366;28;20064;-62
2023/11/30 10:21:04;;;;;;;17.27;6.93;;;;;;;;;;5041170;28;20077;-65
2023/11/30 10:23:34;;;;;;;15.63;6.07;;;;;;;;;;5044044;28;20161;-62
2023/11/30 10:26:04;;;;;;;20.88;6.18;;;;;;;;;;5053766;28;20136;-62
2023/11/30 10:28:31;;;;;;;13.68;6.35;;;;;;;;;;5040108;28;20048;-62
2023/11/30 10:31:02;;;;;;;17.67;6.68;;;;;;;;;;5038817;28;20134;-61
2023/11/30 10:33:32;;;;;;;13.57;6.13;;;;;;;;;;5039618;28;20069;-61
2023/11/30 10:36:03;;;;;;;14.93;7.03;;;;;;;;;;5023710;28;20056;-62
2023/11/30 10:38:33;;;;;;;16.50;6.90;;;;;;;;;;5019385;28;20041;-61
2023/11/30 10:41:06;;;;;;;20.45;6.72;;;;;;;;;;5022078;28;20057;-61
2023/11/30 10:43:36;;;;;;;17.85;7.65;;;;;;;;;;5022572;28;20060;-59
2023/11/30 10:46:07;;;;;;;16.00;6.90;;;;;;;;;;5031919;28;20098;-60
2023/11/30 10:48:34;;;;;;;14.88;6.47;;;;;;;;;;5043788;28;20061;-60
2023/11/30 10:51:01;;;;;;;14.70;6.38;;;;;;;;;;5041600;28;20048;-59
2023/11/30 10:53:55;;;;;;;18.38;6.50;;;;;;;;;;5039479;28;20139;-59
2023/11/30 10:56:23;;;;;;;13.35;6.00;;;;;;;;;;5031364;28;20053;-60
2023/11/30 10:58:49;;;;;;;15.25;6.35;;;;;;;;;;5043422;28;20045;-60
2023/11/30 11:01:18;;;;;;;16.58;7.20;;;;;;;;;;5046711;28;20073;-61
2023/11/30 11:03:45;;;;;;;;;;;;;;;;;;5075283;28;20076;-60
2023/11/30 11:06:12;;;;;;;16.08;6.38;;;;;;;;;;5043185;28;19924;-60
2023/11/30 11:08:39;;;;;;;15.88;7.20;;;;;;;;;;5042451;28;20169;-60
2023/11/30 11:11:08;;;;;;;15.20;6.05;;;;;;;;;;5045025;28;20049;-61
2023/11/30 11:13:45;;;;;;;17.27;7.30;;;;;;;;;;5039805;28;20056;-59
2023/11/30 11:16:12;;;;;;;16.50;7.15;;;;;;;;;;5030988;28;20115;-60
2023/11/30 11:18:43;;;;;;;19.48;7.95;;;;;;;;;;5040395;28;20052;-60
2023/11/30 11:21:25;;;;;;;15.68;7.13;;;;;;;;;;5040606;28;20065;-60
2023/11/30 11:23:52;;;;;;;19.30;7.78;;;;;;;;;;5036977;28;20141;-60
2023/11/30 11:26:20;;;;;;;17.27;7.90;;;;;;;;;;5018529;28;20065;-60
2023/11/30 11:28:47;;;;;;;17.38;7.78;;;;;;;;;;5038271;28;20130;-60
2023/11/30 11:31:13;;;;;;;16.50;7.07;;;;;;;;;;5041474;28;20084;-60
2023/11/30 11:33:42;;;;;;;16.88;7.65;;;;;;;;;;5041843;28;20045;-59
2023/11/30 11:36:10;;;;;;;22.58;8.07;;;;;;;;;;5025252;28;20059;-59
2023/11/30 11:38:37;;;;;;;17.23;7.65;;;;;;;;;;5032698;28;20053;-60
2023/11/30 11:41:04;;;;;;;35.25;12.90;;;;;;;;;;5020894;28;20049;-59
2023/11/30 11:43:33;;;;;;;19.33;8.30;;;;;;;;;;5021277;28;20068;-60
2023/11/30 11:46:02;;;;;;;21.67;8.82;;;;;;;;;;5016159;28;20072;-60
2023/11/30 11:48:29;;;;;;;21.13;8.05;;;;;;;;;;5053261;28;20087;-60
2023/11/30 11:50:59;;;;;;;19.85;8.23;;;;;;;;;;5009780;28;20119;-61
2023/11/30 11:53:26;;;;;;;25.00;8.10;;;;;;;;;;5019965;28;20068;-61
2023/11/30 11:55:53;;;;;;;19.63;8.05;;;;;;;;;;5016308;28;20056;-61
2023/11/30 11:58:20;;;;;;;20.20;8.05;;;;;;;;;;5019666;28;20907;-60
2023/11/30 12:00:54;;;;;;;18.88;8.02;;;;;;;;;;5018860;28;20057;-60
2023/11/30 12:03:21;;;;;;;24.08;8.77;;;;;;;;;;5039160;28;20050;-60
2023/11/30 12:05:48;;;;;;;30.13;11.57;;;;;;;;;;5028714;28;20187;-60
2023/11/30 12:08:15;;;;;;;25.02;9.20;;;;;;;;;;5084041;28;20056;-60
2023/11/30 12:10:44;;;;;;;26.75;8.80;;;;;;;;;;5042886;28;20056;-59
2023/11/30 12:13:13;;;;;;;19.15;7.25;;;;;;;;;;5047010;28;20055;-60
2023/11/30 12:15:39;;;;;;;18.67;7.25;;;;;;;;;;4992573;28;20059;-60
2023/11/30 12:18:09;;;;;;;21.15;8.70;;;;;;;;;;5018657;28;20087;-60
2023/11/30 12:20:37;;;;;;;20.48;8.88;;;;;;;;;;5023128;28;20053;-60
2023/11/30 12:23:04;;;;;;;20.80;8.13;;;;;;;;;;5032129;28;20053;-60
2023/11/30 12:25:31;;;;;;;21.73;9.45;;;;;;;;;;5034799;28;20119;-60
2023/11/30 12:27:58;;;;;;;22.92;8.18;;;;;;;;;;5038996;28;20100;-60
2023/11/30 12:30:24;;;;;;;21.95;8.15;;;;;;;;;;5016224;28;20091;-60
2023/11/30 12:32:51;;;;;;;20.33;8.38;;;;;;;;;;5024389;28;20112;-59
2023/11/30 12:35:19;;;;;;;22.52;8.98;;;;;;;;;;5000419;28;20049;-60
2023/11/30 12:37:48;;;;;;;22.23;9.43;;;;;;;;;;5034461;28;20253;-60
2023/11/30 12:40:15;;;;;;;23.63;8.48;;;;;;;;;;5038773;28;20088;-60
2023/11/30 12:42:42;;;;;;;24.77;8.93;;;;;;;;;;5076742;28;20060;-59
2023/11/30 12:45:10;;;;;;;22.48;9.25;;;;;;;;;;5024863;28;20044;-60
2023/11/30 12:47:39;;;;;;;25.27;9.23;;;;;;;;;;5043964;28;20087;-61
2023/11/30 12:50:07;;;;;;;20.77;8.77;;;;;;;;;;5042185;28;20075;-60
2023/11/30 12:52:35;;;;;;;20.67;8.18;;;;;;;;;;5041736;28;20048;-61
2023/11/30 12:55:02;;;;;;;19.50;8.55;;;;;;;;;;5018426;28;20057;-61
2023/11/30 12:57:29;;;;;;;24.50;8.88;;;;;;;;;;5055812;28;20057;-61
2023/11/30 12:59:59;;;;;;;25.75;9.73;;;;;;;;;;5026348;28;20049;-61
2023/11/30 13:02:26;;;;;;;21.25;8.90;;;;;;;;;;5047318;28;20053;-61
2023/11/30 13:04:52;;;;;;;21.10;9.30;;;;;;;;;;5019645;28;20152;-60
2023/11/30 13:07:21;;;;;;;25.35;9.52;;;;;;;;;;5022667;28;20044;-60
2023/11/30 13:09:49;;;;;;;;;;;;;;;;;;5022506;28;20117;-60
2023/11/30 13:12:20;;;;;;;20.50;7.43;;;;;;;;;;5039743;28;20239;-61
2023/11/30 13:14:46;;;;;;;19.60;8.68;;;;;;;;;;5006712;28;20059;-61
2023/11/30 13:17:16;;;;;;;24.52;9.65;;;;;;;;;;5056221;28;20122;-62
2023/11/30 13:19:46;;;;;;;25.35;9.07;;;;;;;;;;5043057;28;20045;-61
2023/11/30 13:22:12;;;;;;;26.65;10.00;;;;;;;;;;5037413;28;20074;-60
2023/11/30 13:24:40;;;;;;;22.80;9.23;;;;;;;;;;5014168;28;20053;-61
2023/11/30 13:27:08;;;;;;;;;;;;;;;;;;5049319;28;20071;-60
2023/11/30 13:29:35;;;;;;;21.17;7.65;;;;;;;;;;5027860;28;20026;-61
2023/11/30 13:32:02;;;;;;;25.20;9.70;;;;;;;;;;5011096;28;20052;-61
2023/11/30 13:34:29;;;;;;;26.13;8.85;;;;;;;;;;5036010;28;20060;-61
2023/11/30 13:36:56;;;;;;;23.30;8.80;;;;;;;;;;5021302;28;20135;-61
2023/11/30 13:39:22;;;;;;;22.83;9.32;;;;;;;;;;5021788;28;20115;-60
2023/11/30 13:41:49;;;;;;;23.85;9.82;;;;;;;;;;5020831;28;20052;-61
2023/11/30 13:44:17;;;;;;;21.02;8.85;;;;;;;;;;5019935;28;20050;-62
2023/11/30 13:46:44;;;;;;;22.17;8.30;;;;;;;;;;5010635;28;20079;-59
2023/11/30 13:49:13;;;;;;;19.67;7.15;;;;;;;;;;5023492;28;20053;-59
2023/11/30 13:51:41;;;;;;;19.92;7.97;;;;;;;;;;5021981;28;20123;-60
2023/11/30 13:54:07;;;;;;;16.98;7.93;;;;;;;;;;5025010;28;20061;-60
2023/11/30 13:56:35;;;;;;;17.15;7.65;;;;;;;;;;5049458;28;20110;-59
2023/11/30 13:59:02;;;;;;;17.90;7.85;;;;;;;;;;5042221;28;20107;-60
2023/11/30 14:01:30;;;;;;;15.98;7.25;;;;;;;;;;5040456;28;20088;-60
2023/11/30 14:03:57;;;;;;;16.27;7.13;;;;;;;;;;5041471;28;20132;-61
2023/11/30 14:06:23;;;;;;;18.67;7.35;;;;;;;;;;5045663;28;20088;-61
2023/11/30 14:08:50;;;;;;;17.02;7.57;;;;;;;;;;5041664;28;20115;-59
2023/11/30 14:11:17;;;;;;;19.27;7.78;;;;;;;;;;5044207;28;20061;-61
2023/11/30 14:13:44;;;;;;;20.15;7.95;;;;;;;;;;5046481;28;20052;-61
2023/11/30 14:16:15;;;;;;;16.45;7.80;;;;;;;;;;4991287;28;20131;-61
2023/11/30 14:18:43;;;;;;;15.98;7.20;;;;;;;;;;5022999;28;20140;-60
2023/11/30 14:21:10;;;;;;;17.05;7.18;;;;;;;;;;5023599;28;20058;-60
2023/11/30 14:23:36;;;;;;;21.40;7.70;;;;;;;;;;5018558;28;20076;-59
2023/11/30 14:26:06;;;;;;;16.50;6.95;;;;;;;;;;4997645;28;20052;-62
2023/11/30 14:28:33;;;;;;;19.80;7.55;;;;;;;;;;5020479;28;20056;-59
2023/11/30 14:31:00;;;;;;;20.17;8.20;;;;;;;;;;5020178;28;20116;-59
2023/11/30 14:33:27;;;;;;;18.00;7.65;;;;;;;;;;5019202;28;20057;-60
2023/11/30 14:35:59;;;;;;;16.27;6.90;;;;;;;;;;5016905;28;20063;-60
2023/11/30 14:38:26;;;;;;;17.85;6.78;;;;;;;;;;5025982;28;20061;-61